Time;durP1;ratioP1;P1;durP2;ratioP2;P2;SDS_P1;SDS_P2;PMS_P1;PMS_P2;Temp;Humidity;BMP_temperature;BMP_pressure;BME280_temperature;BME280_humidity;BME280_pressure;Samples;Min_cycle;Max_cycle;Signal;HPM_P1;HPM_P2
2021/01/13 00:00:12;;;;;;;20.62;9.25;;;;;;;1.18;57.47;100043.59;1729625;81;21185;-62
2021/01/13 00:02:41;;;;;;;18.12;8.90;;;;;;;1.21;57.50;100041.30;1707015;81;22297;-60
2021/01/13 00:05:11;;;;;;;16.20;8.55;;;;;;;1.25;57.40;100033.31;1730277;81;21292;-62
2021/01/13 00:07:39;;;;;;;17.10;9.40;;;;;;;1.26;57.29;100027.22;1686544;83;21218;-62
2021/01/13 00:10:08;;;;;;;15.90;8.73;;;;;;;1.29;57.22;100022.34;1730694;81;21212;-62
2021/01/13 00:12:37;;;;;;;16.73;9.35;;;;;;;1.28;57.27;100018.91;1687172;83;21210;-62
2021/01/13 00:15:07;;;;;;;18.92;10.35;;;;;;;1.33;57.27;100016.55;1674435;84;21214;-63
2021/01/13 00:17:35;;;;;;;17.82;9.90;;;;;;;1.32;57.24;100012.30;1688201;83;21151;-62
2021/01/13 00:20:05;;;;;;;14.73;7.95;;;;;;;1.34;57.05;100003.52;1730449;81;21192;-62
2021/01/13 00:22:34;;;;;;;14.93;8.78;;;;;;;1.28;57.16;100003.36;1730505;81;21228;-62
2021/01/13 00:25:01;;;;;;;18.60;9.73;;;;;;;1.32;57.17;99998.03;1729165;81;21232;-62
2021/01/13 00:27:29;;;;;;;15.13;8.60;;;;;;;1.28;57.19;99986.98;1730273;81;22095;-62
2021/01/13 00:29:57;;;;;;;14.58;8.05;;;;;;;1.33;57.23;99988.03;1730388;81;21686;-62
2021/01/13 00:32:24;;;;;;;15.83;8.53;;;;;;;1.32;57.30;99986.37;1730731;81;21120;-62
2021/01/13 00:34:52;;;;;;;15.53;7.92;;;;;;;1.34;57.19;99984.54;1706847;81;21243;-62
2021/01/13 00:37:20;;;;;;;16.07;8.80;;;;;;;1.35;57.14;99985.77;1731418;81;21700;-63
2021/01/13 00:39:48;;;;;;;13.18;9.10;;;;;;;1.34;57.10;99976.30;1730955;81;21399;-62
2021/01/13 00:42:16;;;;;;;18.15;9.53;;;;;;;1.33;57.10;99963.41;1731147;81;21215;-62
2021/01/13 00:44:44;;;;;;;19.35;8.98;;;;;;;1.34;57.07;99962.50;1732293;81;21149;-63
2021/01/13 00:47:15;;;;;;;19.05;9.45;;;;;;;1.29;57.05;99955.80;1731057;81;21201;-62
2021/01/13 00:49:45;;;;;;;16.37;9.55;;;;;;;1.28;57.15;99951.52;1686935;83;21211;-62
2021/01/13 00:52:12;;;;;;;13.08;7.03;;;;;;;1.26;57.24;99954.65;1731398;81;21176;-62
2021/01/13 00:54:40;;;;;;;8.88;5.35;;;;;;;1.29;57.05;99948.02;1686696;83;21273;-62
2021/01/13 00:57:08;;;;;;;10.70;5.40;;;;;;;1.21;56.97;99940.22;1706488;81;21171;-63
2021/01/13 00:59:36;;;;;;;12.93;5.85;;;;;;;1.16;56.91;99948.23;1730490;81;21228;-64
2021/01/13 01:02:05;;;;;;;9.08;4.80;;;;;;;1.10;56.92;99955.83;1665722;83;21158;-62
2021/01/13 01:04:32;;;;;;;13.50;5.28;;;;;;;1.08;56.98;99953.77;1731257;81;21204;-62
2021/01/13 01:07:03;;;;;;;9.35;5.58;;;;;;;1.04;57.14;99955.28;1729681;81;21172;-62
2021/01/13 01:09:29;;;;;;;11.45;6.03;;;;;;;1.03;57.22;99963.98;1730660;81;21235;-62
2021/01/13 01:11:57;;;;;;;11.00;5.83;;;;;;;1.01;57.13;99954.13;1707225;81;21247;-62
2021/01/13 01:14:24;;;;;;;9.85;5.03;;;;;;;0.99;56.98;99950.77;1730210;81;21133;-62
2021/01/13 01:16:52;;;;;;;9.08;5.58;;;;;;;0.95;57.10;99959.15;1730472;81;22109;-62
2021/01/13 01:19:21;;;;;;;11.88;5.65;;;;;;;0.95;57.30;99955.27;1731329;81;21209;-62
2021/01/13 01:21:48;;;;;;;9.08;4.87;;;;;;;0.96;57.45;99950.48;1730555;81;21192;-63
2021/01/13 01:24:16;;;;;;;11.75;5.28;;;;;;;0.98;57.45;99942.17;1704654;81;21144;-62
2021/01/13 01:26:49;;;;;;;12.33;5.72;;;;;;;1.00;57.33;99933.86;1730982;81;21178;-62
2021/01/13 01:29:17;;;;;;;10.58;5.70;;;;;;;1.06;57.34;99924.51;1730487;81;21333;-62
2021/01/13 01:31:50;;;;;;;10.10;6.33;;;;;;;1.09;57.10;99911.41;1729818;81;21219;-62
2021/01/13 01:34:18;;;;;;;10.93;6.85;;;;;;;1.11;56.86;99903.09;1706058;81;21259;-63
2021/01/13 01:36:47;;;;;;;9.60;5.80;;;;;;;1.10;56.67;99897.52;1704997;81;21521;-62
2021/01/13 01:39:15;;;;;;;11.25;6.08;;;;;;;1.07;56.50;99900.72;1706596;81;21486;-62
2021/01/13 01:41:44;;;;;;;11.75;6.17;;;;;;;1.07;56.63;99900.25;1731172;81;21208;-62
2021/01/13 01:44:11;;;;;;;9.65;6.00;;;;;;;1.09;56.68;99911.41;1730584;81;21183;-62
2021/01/13 01:46:40;;;;;;;12.37;6.55;;;;;;;1.10;56.72;99913.06;1730874;81;21204;-62
2021/01/13 01:49:08;;;;;;;12.40;6.90;;;;;;;1.10;56.49;99909.65;1730306;81;21619;-62
2021/01/13 01:51:53;;;;;;;11.68;5.92;;;;;;;1.10;56.19;99901.41;1706063;81;21268;-63
2021/01/13 01:54:24;;;;;;;9.68;6.50;;;;;;;1.06;56.05;99895.14;1722479;81;21172;-63
2021/01/13 01:56:58;;;;;;;12.40;6.42;;;;;;;1.05;56.02;99893.48;1704946;81;21183;-62
2021/01/13 01:59:42;;;;;;;11.03;6.53;;;;;;;1.05;55.85;99887.01;1706116;81;21616;-63
2021/01/13 02:02:11;;;;;;;12.18;6.35;;;;;;;1.04;55.71;99893.09;1704732;81;21203;-62
2021/01/13 02:04:42;;;;;;;15.10;6.28;;;;;;;1.01;55.49;99890.64;1661181;81;21163;-63
2021/01/13 02:07:30;;;;;;;14.95;6.90;;;;;;;0.98;55.49;99880.45;1731502;81;21657;-63
2021/01/13 02:09:58;;;;;;;10.65;6.53;;;;;;;0.95;55.56;99874.13;1730757;81;22354;-63
2021/01/13 02:12:29;;;;;;;12.93;6.87;;;;;;;0.92;55.65;99879.84;1731374;81;21203;-63
2021/01/13 02:14:58;;;;;;;10.43;6.15;;;;;;;0.93;55.58;99889.73;1706453;81;21276;-62
2021/01/13 02:17:33;;;;;;;14.05;7.15;;;;;;;0.91;55.59;99872.14;1730051;81;21177;-63
2021/01/13 02:20:08;;;;;;;10.80;5.75;;;;;;;0.90;55.49;99866.09;1705892;81;21247;-62
2021/01/13 02:22:56;;;;;;;11.73;6.75;;;;;;;0.88;55.43;99870.52;1702495;81;21207;-62
2021/01/13 02:25:58;;;;;;;11.68;6.40;;;;;;;0.85;55.47;99873.25;1730813;81;21192;-63
2021/01/13 02:28:27;;;;;;;13.62;6.97;;;;;;;0.81;55.72;99857.92;1729799;81;21272;-64
2021/01/13 02:31:32;;;;;;;14.90;8.05;;;;;;;0.77;55.81;99853.35;1705475;81;21190;-63
2021/01/13 02:34:24;;;;;;;9.28;5.62;;;;;;;0.77;55.86;99843.45;1706707;81;21251;-63
2021/01/13 02:37:06;;;;;;;20.27;7.28;;;;;;;0.78;55.63;99835.62;1688509;83;21196;-62
2021/01/13 02:39:34;;;;;;;12.70;6.95;;;;;;;0.76;55.73;99821.91;1730182;81;21595;-63
2021/01/13 02:42:03;;;;;;;12.53;6.55;;;;;;;0.78;55.63;99827.02;1706156;81;21207;-63
2021/01/13 02:44:31;;;;;;;12.28;7.05;;;;;;;0.79;55.71;99824.36;1730970;81;21164;-63
2021/01/13 02:47:04;;;;;;;13.78;7.78;;;;;;;0.80;55.54;99823.42;1705073;81;21236;-63
2021/01/13 02:49:38;;;;;;;14.78;7.37;;;;;;;0.83;55.75;99822.45;1730743;81;21177;-63
2021/01/13 02:52:18;;;;;;;14.43;7.75;;;;;;;0.83;55.63;99813.39;1726968;81;21253;-63
2021/01/13 02:54:54;;;;;;;12.68;7.28;;;;;;;0.83;55.53;99813.39;1686027;82;22501;-63
2021/01/13 02:57:27;;;;;;;14.23;7.08;;;;;;;0.81;55.32;99820.37;1682475;82;21627;-63
2021/01/13 02:59:58;;;;;;;12.03;7.22;;;;;;;0.79;55.16;99812.70;1707860;82;21625;-63
2021/01/13 03:02:34;;;;;;;15.72;7.15;;;;;;;0.76;55.13;99811.55;1707685;82;21235;-63
2021/01/13 03:05:04;;;;;;;14.55;7.75;;;;;;;0.73;55.21;99809.11;1707354;82;21198;-63
2021/01/13 03:07:35;;;;;;;14.30;7.50;;;;;;;0.74;55.37;99825.04;1681092;82;21542;-63
2021/01/13 03:10:12;;;;;;;12.75;7.25;;;;;;;0.75;55.49;99824.11;1691641;82;21205;-62
2021/01/13 03:12:41;;;;;;;14.93;6.87;;;;;;;0.78;55.35;99820.08;1708262;82;21207;-63
2021/01/13 03:15:10;;;;;;;9.75;5.42;;;;;;;0.78;55.30;99812.31;1681167;82;21223;-63
2021/01/13 03:18:20;;;;;;;12.82;6.92;;;;;;;0.76;55.01;99815.88;1686021;82;21240;-63
2021/01/13 03:21:07;;;;;;;14.45;7.17;;;;;;;0.69;55.24;99807.12;1708015;82;21232;-63
2021/01/13 03:24:13;;;;;;;11.08;6.22;;;;;;;0.70;55.36;99798.42;1682072;82;28000;-62
2021/01/13 03:26:45;;;;;;;11.85;6.83;;;;;;;0.67;55.20;99793.42;1708250;82;21616;-63
2021/01/13 03:29:20;;;;;;;10.93;6.47;;;;;;;0.63;55.35;99794.47;1708031;82;21164;-63
2021/01/13 03:32:07;;;;;;;11.28;7.25;;;;;;;0.68;55.34;99790.37;1669097;84;21171;-63
2021/01/13 03:35:03;;;;;;;11.00;6.08;;;;;;;0.71;55.10;99795.41;1677691;82;21253;-63
2021/01/13 03:38:00;;;;;;;13.83;6.83;;;;;;;0.71;55.17;99790.22;1684546;82;21615;-63
2021/01/13 03:40:31;;;;;;;10.53;6.58;;;;;;;0.70;55.28;99786.77;1708831;82;21208;-63
2021/01/13 03:43:00;;;;;;;12.15;7.08;;;;;;;0.71;55.24;99781.16;1680970;82;21308;-63
2021/01/13 03:45:37;;;;;;;10.50;5.92;;;;;;;0.70;55.30;99774.29;1708419;82;21686;-63
2021/01/13 03:48:16;;;;;;;10.75;5.87;;;;;;;0.71;55.44;99769.51;1682760;82;21208;-63
2021/01/13 03:50:46;;;;;;;10.48;5.58;;;;;;;0.71;55.28;99767.75;1681878;82;21188;-64
2021/01/13 03:53:15;;;;;;;11.08;5.60;;;;;;;0.69;55.41;99764.84;1679200;82;21502;-64
2021/01/13 03:55:44;;;;;;;11.35;6.22;;;;;;;0.69;55.38;99762.24;1700342;82;21669;-64
2021/01/13 03:58:16;;;;;;;9.93;5.72;;;;;;;0.73;55.18;99754.72;1673925;82;21187;-63
2021/01/13 04:01:08;;;;;;;12.13;6.15;;;;;;;0.72;55.08;99753.89;1699123;82;21188;-64
2021/01/13 04:03:39;;;;;;;10.80;6.15;;;;;;;0.74;55.17;99752.53;1675437;82;21178;-64
2021/01/13 04:06:11;;;;;;;12.90;6.22;;;;;;;0.73;55.24;99747.78;1675868;82;21330;-64
2021/01/13 04:08:41;;;;;;;12.90;7.42;;;;;;;0.77;55.14;99746.34;1698994;82;21201;-62
2021/01/13 04:11:17;;;;;;;15.03;8.28;;;;;;;0.77;55.13;99734.69;1699908;82;21184;-60
2021/01/13 04:13:52;;;;;;;13.95;7.45;;;;;;;0.76;55.34;99731.70;1674698;82;21111;-66
2021/01/13 04:16:21;;;;;;;12.53;7.30;;;;;;;0.76;55.48;99726.09;1699905;82;21251;-62
2021/01/13 04:18:51;;;;;;;14.60;8.98;;;;;;;0.76;55.51;99725.23;1699851;82;21259;-62
2021/01/13 04:21:21;;;;;;;16.20;7.67;;;;;;;0.77;55.48;99724.33;1673196;82;21231;-62
2021/01/13 04:23:50;;;;;;;15.80;8.48;;;;;;;0.78;55.47;99722.95;1699414;82;21625;-63
2021/01/13 04:26:18;;;;;;;12.68;7.83;;;;;;;0.78;55.30;99724.25;1673432;82;21231;-61
2021/01/13 04:28:48;;;;;;;14.80;7.92;;;;;;;0.73;55.24;99721.06;1697630;82;22563;-62
2021/01/13 04:32:48;;;;;;;14.53;7.92;;;;;;;0.74;55.43;99728.75;1794443;78;23142;-63
2021/01/13 04:35:17;;;;;;;13.95;7.53;;;;;;;0.73;55.46;99727.06;1777396;80;21077;-63
2021/01/13 04:37:45;;;;;;;13.28;7.40;;;;;;;0.73;55.61;99726.23;1777307;79;22879;-63
2021/01/13 04:40:33;;;;;;;12.47;7.08;;;;;;;0.78;55.52;99720.38;1741183;80;21153;-63
2021/01/13 04:43:09;;;;;;;14.18;6.75;;;;;;;0.78;55.50;99716.48;1681413;81;21243;-62
2021/01/13 04:45:46;;;;;;;14.55;7.87;;;;;;;0.81;55.31;99711.16;1686757;81;21206;-62
2021/01/13 04:48:19;;;;;;;15.55;8.10;;;;;;;0.83;55.38;99722.27;1713026;81;21194;-62
2021/01/13 04:50:49;;;;;;;13.53;7.53;;;;;;;0.85;55.37;99705.36;1694314;81;21219;-63
2021/01/13 04:53:20;;;;;;;14.25;8.70;;;;;;;0.87;55.44;99706.11;1714501;82;21183;-61
2021/01/13 04:55:54;;;;;;;14.45;7.78;;;;;;;0.86;55.55;99707.05;1709226;81;21572;-61
2021/01/13 04:59:33;;;;;;;14.95;6.75;;;;;;;0.87;55.47;99693.16;1868765;74;23365;-61
2021/01/13 05:02:11;;;;;;;20.27;7.72;;;;;;;0.80;55.62;99693.92;1809962;77;21777;-61
2021/01/13 05:04:56;;;;;;;15.30;7.03;;;;;;;0.79;55.66;99695.30;1837455;77;21836;-61
2021/01/13 05:07:40;;;;;;;11.03;6.40;;;;;;;0.74;55.76;99697.67;1836769;77;22600;-60
2021/01/13 05:10:16;;;;;;;16.07;7.55;;;;;;;0.72;55.65;99686.56;1837773;77;21198;-62
2021/01/13 05:12:54;;;;;;;16.87;7.87;;;;;;;0.72;55.84;99690.88;1835709;76;21215;-61
2021/01/13 05:15:32;;;;;;;12.60;6.83;;;;;;;0.72;55.95;99692.18;1808367;77;21081;-61
2021/01/13 05:18:11;;;;;;;13.22;7.50;;;;;;;0.71;55.98;99690.06;1778065;78;21155;-61
2021/01/13 05:20:44;;;;;;;12.98;6.85;;;;;;;0.69;56.10;99686.72;1805330;77;21182;-61
2021/01/13 05:23:12;;;;;;;14.40;6.67;;;;;;;0.68;56.01;99675.97;1799396;77;21152;-62
2021/01/13 05:25:49;;;;;;;12.65;7.12;;;;;;;0.73;56.06;99669.27;1809336;78;21172;-61
2021/01/13 05:28:26;;;;;;;13.50;6.95;;;;;;;0.76;55.96;99663.94;1768366;78;21777;-61
2021/01/13 05:30:58;;;;;;;11.95;7.12;;;;;;;0.76;55.97;99658.76;1809644;78;21757;-60
2021/01/13 05:33:30;;;;;;;11.50;5.90;;;;;;;0.77;56.02;99659.58;1745476;79;21248;-60
2021/01/13 05:36:03;;;;;;;15.15;8.20;;;;;;;0.74;56.00;99661.89;1745535;80;22364;-61
2021/01/13 05:39:09;;;;;;;15.03;6.83;;;;;;;0.71;55.96;99663.34;1763461;79;21206;-61
2021/01/13 05:41:40;;;;;;;12.37;6.65;;;;;;;0.68;55.97;99668.20;1750422;79;21700;-59
2021/01/13 05:44:09;;;;;;;15.63;8.25;;;;;;;0.67;55.96;99669.12;1777135;77;21147;-67
2021/01/13 05:46:47;;;;;;;16.32;7.92;;;;;;;0.68;56.26;99679.02;1771713;78;21171;-61
2021/01/13 05:49:16;;;;;;;14.03;6.47;;;;;;;0.69;56.22;99675.50;1809899;78;21119;-61
2021/01/13 05:51:44;;;;;;;13.38;7.97;;;;;;;0.71;56.50;99675.81;1769610;78;21485;-59
2021/01/13 05:54:16;;;;;;;12.35;6.75;;;;;;;0.71;56.49;99668.52;1773826;79;21171;-60
2021/01/13 05:56:45;;;;;;;11.68;6.20;;;;;;;0.70;56.53;99663.77;1773536;78;22785;-60
2021/01/13 05:59:14;;;;;;;14.90;8.03;;;;;;;0.69;56.22;99665.14;1771752;79;21187;-60
2021/01/13 06:02:03;;;;;;;12.45;6.80;;;;;;;0.68;56.28;99664.78;1802424;78;21630;-65
2021/01/13 06:04:31;;;;;;;11.60;6.75;;;;;;;0.67;56.25;99659.20;1745249;80;21265;-63
2021/01/13 06:07:12;;;;;;;12.50;6.95;;;;;;;0.62;56.26;99658.61;1776318;78;21187;-62
2021/01/13 06:12:30;;;;;;;11.22;6.50;;;;;;;0.65;56.27;99642.45;1748744;79;22486;-63
2021/01/13 06:14:58;;;;;;;13.18;6.95;;;;;;;0.64;56.46;99651.16;1722906;81;21137;-64
2021/01/13 06:17:31;;;;;;;11.97;7.03;;;;;;;0.62;56.22;99649.55;1722043;81;21686;-64
2021/01/13 06:19:57;;;;;;;15.32;6.70;;;;;;;0.61;56.48;99650.48;1665651;85;21056;-64
2021/01/13 06:22:33;;;;;;;13.13;7.30;;;;;;;0.58;56.59;99653.22;1719358;82;21163;-63
2021/01/13 06:25:04;;;;;;;11.48;6.95;;;;;;;0.58;56.59;99645.45;1718818;82;22532;-65
2021/01/13 06:28:06;;;;;;;14.10;6.92;;;;;;;0.65;56.56;99650.22;1702637;82;21148;-64
2021/01/13 06:30:39;;;;;;;12.55;6.40;;;;;;;0.67;56.52;99642.37;1699510;82;22388;-64
2021/01/13 06:33:16;;;;;;;11.15;6.70;;;;;;;0.68;56.36;99646.66;1717311;82;21029;-64
2021/01/13 06:35:49;;;;;;;13.13;7.17;;;;;;;0.66;56.40;99636.84;1718995;82;21588;-65
2021/01/13 06:38:39;;;;;;;13.05;7.40;;;;;;;0.64;56.46;99636.91;1681391;82;21208;-63
2021/01/13 06:41:08;;;;;;;14.18;7.42;;;;;;;0.63;56.54;99636.98;1718330;82;21195;-64
2021/01/13 06:43:35;;;;;;;13.95;6.67;;;;;;;0.58;56.76;99637.22;1720673;82;21252;-64
2021/01/13 06:46:20;;;;;;;13.08;7.62;;;;;;;0.59;56.62;99639.34;1717200;82;21267;-64
2021/01/13 06:48:49;;;;;;;12.10;7.20;;;;;;;0.63;56.81;99636.98;1718340;82;21191;-65
2021/01/13 06:51:17;;;;;;;13.50;8.05;;;;;;;0.65;56.71;99634.69;1718726;82;21179;-62
2021/01/13 06:53:47;;;;;;;11.53;7.30;;;;;;;0.65;56.86;99633.39;1717351;82;21216;-68
2021/01/13 06:56:15;;;;;;;17.35;8.05;;;;;;;0.65;56.71;99631.27;1649069;85;21980;-61
2021/01/13 06:59:03;;;;;;;15.50;7.92;;;;;;;0.68;56.61;99636.30;1669648;82;21429;-62
2021/01/13 07:01:31;;;;;;;13.15;7.35;;;;;;;0.66;56.63;99632.95;1682540;82;21292;-61
2021/01/13 07:04:00;;;;;;;16.15;8.20;;;;;;;0.68;56.81;99628.06;1683295;84;21219;-62
2021/01/13 07:06:28;;;;;;;16.73;8.40;;;;;;;0.68;56.63;99614.29;1682388;83;21246;-66
2021/01/13 07:08:56;;;;;;;15.63;7.85;;;;;;;0.71;56.56;99618.02;1681999;83;21251;-63
2021/01/13 07:11:24;;;;;;;14.83;8.63;;;;;;;0.70;56.49;99619.75;1636955;84;21275;-64
2021/01/13 07:13:54;;;;;;;17.73;10.43;;;;;;;0.70;56.39;99609.86;1646194;85;21732;-63
2021/01/13 07:16:30;;;;;;;15.50;8.13;;;;;;;0.65;56.58;99619.62;1676491;84;21591;-62
2021/01/13 07:19:00;;;;;;;13.40;7.58;;;;;;;0.58;56.43;99622.98;1666414;84;21259;-62
2021/01/13 07:21:39;;;;;;;17.77;9.40;;;;;;;0.53;56.64;99618.49;1635726;85;21270;-63
2021/01/13 07:24:15;;;;;;;15.93;9.83;;;;;;;0.51;56.98;99615.16;1667887;84;21296;-62
2021/01/13 07:26:44;;;;;;;15.28;9.25;;;;;;;0.60;57.22;99609.95;1663813;84;21235;-62
2021/01/13 07:29:11;;;;;;;17.65;9.55;;;;;;;0.62;57.26;99608.12;1667240;84;21190;-62
2021/01/13 07:31:41;;;;;;;15.45;10.18;;;;;;;0.68;57.22;99595.70;1643188;85;21189;-61
2021/01/13 07:34:14;;;;;;;18.42;10.03;;;;;;;0.73;56.83;99593.70;1675760;84;21279;-64
2021/01/13 07:36:42;;;;;;;16.87;8.88;;;;;;;0.77;56.66;99589.20;1612868;84;21242;-63
2021/01/13 07:39:10;;;;;;;21.97;11.95;;;;;;;0.79;56.76;99586.09;1643852;84;21250;-63
2021/01/13 07:42:12;;;;;;;21.25;11.12;;;;;;;0.82;56.59;99585.91;1640024;84;21791;-62
2021/01/13 07:44:42;;;;;;;20.68;10.58;;;;;;;0.84;56.48;99575.03;1667162;84;21200;-63
2021/01/13 07:47:28;;;;;;;19.85;10.75;;;;;;;0.82;56.52;99576.84;1677307;84;21260;-61
2021/01/13 07:50:08;;;;;;;16.23;10.50;;;;;;;0.80;56.42;99575.27;1667381;84;21200;-64
2021/01/13 07:52:46;;;;;;;21.33;12.03;;;;;;;0.78;56.34;99563.69;1631960;86;21223;-63
2021/01/13 07:55:23;;;;;;;18.65;11.28;;;;;;;0.78;56.36;99557.21;1649639;85;21272;-60
2021/01/13 07:57:56;;;;;;;18.17;10.98;;;;;;;0.78;56.59;99544.27;1676042;82;21243;-62
2021/01/13 08:06:54;;;;;;;17.75;10.55;;;;;;;0.60;57.01;99536.17;1798235;78;23017;-72
2021/01/13 08:11:30;;;;;;;18.35;10.78;;;;;;;0.40;57.41;99528.97;1795542;78;22870;-74
2021/01/13 08:14:13;;;;;;;22.37;12.18;;;;;;;0.31;57.88;99530.29;1769903;78;22092;-73
2021/01/13 08:16:58;;;;;;;19.02;11.00;;;;;;;0.36;57.47;99527.47;1710215;81;21408;-72
2021/01/13 08:20:06;;;;;;;14.60;8.80;;;;;;;0.35;57.59;99521.47;1710614;81;21026;-72
2021/01/13 08:22:34;;;;;;;17.25;9.65;;;;;;;0.35;57.70;99522.77;1720694;81;21213;-73
2021/01/13 08:25:11;;;;;;;18.00;10.60;;;;;;;0.31;57.58;99514.77;1720132;81;21746;-72
2021/01/13 08:27:32;;;;;;;17.32;9.88;;;;;;;0.30;57.67;99510.95;1678101;82;21187;-73
2021/01/13 08:30:00;;;;;;;22.25;12.07;;;;;;;0.28;57.84;99512.33;1736262;81;21346;-72
2021/01/13 08:32:40;;;;;;;20.90;11.08;;;;;;;0.36;57.94;99508.89;1721519;81;22146;-71
2021/01/13 08:35:10;;;;;;;22.52;11.18;;;;;;;0.40;57.99;99497.09;1730809;81;21176;-71
2021/01/13 08:37:39;;;;;;;21.23;11.57;;;;;;;0.47;57.46;99500.58;1736284;80;21533;-72
2021/01/13 08:40:27;;;;;;;24.30;11.78;;;;;;;0.41;57.70;99493.13;1737917;80;21233;-72
2021/01/13 08:43:10;;;;;;;17.92;11.15;;;;;;;0.35;57.74;99499.47;1712895;82;21408;-72
2021/01/13 08:45:47;;;;;;;20.65;11.65;;;;;;;0.38;58.03;99502.34;1708767;83;21210;-73
2021/01/13 08:48:19;;;;;;;17.17;9.78;;;;;;;0.41;58.34;99498.77;1685454;83;21158;-72
2021/01/13 08:51:11;;;;;;;21.60;10.55;;;;;;;0.44;57.75;99495.56;1689969;83;21195;-72
2021/01/13 08:53:39;;;;;;;19.77;10.63;;;;;;;0.43;57.85;99490.46;1685168;83;21736;-72
2021/01/13 08:56:09;;;;;;;16.55;9.93;;;;;;;0.46;57.38;99483.84;1703875;81;21354;-72
2021/01/13 08:58:36;;;;;;;17.48;10.93;;;;;;;0.44;57.50;99483.91;1701959;81;21534;-72
2021/01/13 09:14:27;;;;;;;16.00;9.15;;;;;;;0.43;57.37;99476.23;1787597;78;22911;-58
2021/01/13 09:17:00;;;;;;;14.40;8.98;;;;;;;0.34;57.62;99474.50;1758019;79;21587;-57
2021/01/13 09:19:37;;;;;;;19.73;9.78;;;;;;;0.38;57.65;99477.75;1717425;81;22700;-57
2021/01/13 09:22:10;;;;;;;17.32;9.65;;;;;;;0.43;57.24;99475.76;1726300;80;21101;-57
2021/01/13 09:24:44;;;;;;;18.27;10.60;;;;;;;0.49;57.16;99474.16;1758124;80;21195;-62
2021/01/13 09:27:18;;;;;;;19.15;10.65;;;;;;;0.58;57.00;99477.17;1757843;79;21283;-57
2021/01/13 09:29:50;;;;;;;15.90;9.60;;;;;;;0.65;56.80;99472.86;1756488;80;21157;-57
2021/01/13 09:32:27;;;;;;;16.67;8.53;;;;;;;0.77;56.88;99473.95;1868012;74;21759;-58
2021/01/13 09:34:57;;;;;;;16.50;9.58;;;;;;;0.72;56.14;99472.94;1816101;75;21202;-58
2021/01/13 09:37:28;;;;;;;14.68;8.83;;;;;;;0.65;56.39;99475.45;1850864;75;21290;-57
2021/01/13 09:40:03;;;;;;;11.88;6.60;;;;;;;0.59;56.62;99469.77;1821302;75;22537;-58
2021/01/13 09:42:41;;;;;;;14.03;7.37;;;;;;;0.58;56.59;99468.11;1851244;75;21179;-58
2021/01/13 09:45:09;;;;;;;15.37;9.07;;;;;;;0.57;56.90;99463.84;1851249;75;21179;-57
2021/01/13 09:47:37;;;;;;;15.70;8.63;;;;;;;0.57;57.00;99460.78;1850622;75;21136;-58
2021/01/13 09:50:07;;;;;;;12.13;7.05;;;;;;;0.51;56.99;99452.89;1851015;75;21215;-58
2021/01/13 09:52:53;;;;;;;13.43;7.10;;;;;;;0.52;56.84;99453.28;1850095;75;22267;-58
2021/01/13 09:55:21;;;;;;;;;;;;;;;0.53;56.55;99448.47;1854022;75;21479;-55
2021/01/13 09:57:48;;;;;;;11.90;7.15;;;;;;;0.55;56.71;99445.80;1796604;75;20323;-61
2021/01/13 10:00:17;;;;;;;15.30;7.75;;;;;;;0.54;56.80;99437.67;1817824;75;21586;-56
2021/01/13 10:02:49;;;;;;;11.03;4.72;;;;;;;0.57;56.52;99432.31;1822251;75;21233;-57
2021/01/13 10:05:19;;;;;;;12.93;5.95;;;;;;;0.60;56.08;99426.14;1852776;75;21525;-57
2021/01/13 10:07:47;;;;;;;12.60;6.08;;;;;;;0.57;56.46;99421.95;1813184;75;21217;-56
2021/01/13 10:10:15;;;;;;;10.00;4.80;;;;;;;0.59;56.23;99420.14;1760636;75;21159;-59
2021/01/13 10:12:49;;;;;;;11.73;5.05;;;;;;;0.57;56.28;99409.01;1778400;75;21147;-59
2021/01/13 10:15:18;;;;;;;11.30;6.37;;;;;;;0.58;55.63;99404.22;1820461;75;21525;-59
2021/01/13 10:17:46;;;;;;;9.93;5.80;;;;;;;0.56;55.55;99406.06;1851562;75;21143;-58
2021/01/13 10:20:19;;;;;;;10.70;5.60;;;;;;;0.59;55.68;99403.75;1847115;75;21139;-59
2021/01/13 10:22:49;;;;;;;10.82;5.20;;;;;;;0.64;55.71;99401.74;1813985;75;21846;-59
2021/01/13 10:25:29;;;;;;;9.20;4.85;;;;;;;0.66;55.42;99399.93;1787691;78;21181;-59
2021/01/13 10:27:59;;;;;;;10.65;5.40;;;;;;;0.68;55.11;99392.91;1800410;77;21224;-58
2021/01/13 10:30:28;;;;;;;10.05;5.37;;;;;;;0.64;55.07;99390.09;1755550;78;21089;-60
2021/01/13 10:32:56;;;;;;;10.45;5.12;;;;;;;0.60;55.07;99386.02;1748711;78;21194;-59
2021/01/13 10:35:38;;;;;;;12.05;5.75;;;;;;;0.57;55.05;99381.00;1811836;77;21554;-59
2021/01/13 10:38:07;;;;;;;13.68;6.15;;;;;;;0.52;55.35;99376.92;1757824;78;21209;-59
2021/01/13 10:40:35;;;;;;;11.12;6.05;;;;;;;0.46;55.70;99369.48;1759034;78;21210;-59
2021/01/13 10:43:02;;;;;;;9.33;4.33;;;;;;;0.44;55.72;99358.38;1803922;78;21155;-59
2021/01/13 10:45:52;;;;;;;11.40;5.08;;;;;;;0.52;55.86;99355.36;1764529;77;21188;-58
2021/01/13 10:48:21;;;;;;;11.08;5.28;;;;;;;0.57;55.80;99346.05;1844848;77;21197;-59
2021/01/13 10:50:49;;;;;;;11.50;5.90;;;;;;;0.63;55.60;99340.08;1843692;75;21190;-60
2021/01/13 10:53:17;;;;;;;13.45;6.50;;;;;;;0.63;55.58;99339.25;1787209;77;21274;-58
2021/01/13 10:55:45;;;;;;;12.63;5.30;;;;;;;0.61;55.54;99329.45;1818474;77;21229;-58
2021/01/13 10:58:13;;;;;;;9.65;5.37;;;;;;;0.56;55.67;99328.41;1815670;77;21193;-60
2021/01/13 11:00:41;;;;;;;14.13;6.95;;;;;;;0.44;56.19;99333.80;1802925;77;21211;-58
2021/01/13 11:03:09;;;;;;;11.78;6.25;;;;;;;0.39;56.70;99328.05;1830864;77;21175;-59
2021/01/13 11:05:38;;;;;;;10.88;6.03;;;;;;;0.34;56.75;99328.28;1843087;77;21294;-58
2021/01/13 11:08:06;;;;;;;10.60;5.67;;;;;;;0.32;56.84;99327.55;1815774;77;21209;-59
2021/01/13 11:10:36;;;;;;;9.68;5.78;;;;;;;0.32;56.76;99321.52;1796012;77;21989;-59
2021/01/13 11:13:06;;;;;;;12.10;5.80;;;;;;;0.38;56.72;99316.48;1820439;77;21222;-59
2021/01/13 11:15:37;;;;;;;11.33;5.55;;;;;;;0.40;56.85;99311.58;1788229;78;21195;-59
2021/01/13 11:18:08;;;;;;;11.55;5.95;;;;;;;0.40;56.49;99309.45;1849449;75;22867;-58
2021/01/13 11:20:38;;;;;;;9.73;5.65;;;;;;;0.35;56.73;99315.73;1819250;77;21120;-59
2021/01/13 11:23:07;;;;;;;16.25;7.00;;;;;;;0.30;56.67;99314.30;1795577;77;21214;-59
2021/01/13 11:25:37;;;;;;;11.22;5.95;;;;;;;0.30;56.51;99297.48;1845346;77;21206;-57
2021/01/13 11:28:13;;;;;;;11.88;4.95;;;;;;;0.30;56.70;99298.77;1844452;77;21600;-58
2021/01/13 11:30:47;;;;;;;;;;;;;;;0.32;55.89;99289.16;1799028;77;21476;-58
2021/01/13 11:33:17;;;;;;;8.88;4.55;;;;;;;0.28;56.05;99298.86;1812574;77;20291;-58
2021/01/13 11:35:49;;;;;;;8.63;4.50;;;;;;;0.25;56.08;99299.48;1823730;77;21187;-58
2021/01/13 11:38:37;;;;;;;9.68;5.62;;;;;;;0.29;56.02;99291.48;1844187;77;21241;-58
2021/01/13 11:41:37;;;;;;;9.75;5.28;;;;;;;0.30;56.00;99288.42;1843018;76;21182;-58
2021/01/13 11:44:43;;;;;;;10.18;4.62;;;;;;;0.26;55.98;99277.88;1817735;77;21174;-61
2021/01/13 11:47:25;;;;;;;11.80;5.42;;;;;;;0.26;56.23;99279.17;1845644;76;21150;-60
2021/01/13 11:49:55;;;;;;;8.43;3.72;;;;;;;0.25;56.44;99278.79;1843505;75;21177;-60
2021/01/13 11:52:32;;;;;;;10.88;5.10;;;;;;;0.27;56.13;99275.65;1845841;77;21552;-60
2021/01/13 11:54:59;;;;;;;10.28;5.50;;;;;;;0.27;56.28;99273.06;1845362;77;22666;-60
2021/01/13 11:57:34;;;;;;;10.53;5.53;;;;;;;0.28;56.06;99276.86;1817670;77;21189;-61
2021/01/13 12:00:38;;;;;;;8.25;5.10;;;;;;;0.31;56.24;99271.99;1846037;77;21173;-61
2021/01/13 12:03:05;;;;;;;9.00;4.42;;;;;;;0.29;55.97;99264.78;1681787;83;21190;-60
2021/01/13 12:05:38;;;;;;;9.98;4.70;;;;;;;0.23;55.94;99269.81;1676661;83;21515;-60
2021/01/13 12:08:10;;;;;;;10.35;4.33;;;;;;;0.24;56.14;99260.32;1667758;82;21638;-60
2021/01/13 12:10:43;;;;;;;10.40;4.75;;;;;;;0.23;56.13;99251.70;1667631;84;22024;-61
2021/01/13 12:13:26;;;;;;;10.60;4.63;;;;;;;0.21;56.24;99256.14;1696581;82;21242;-60
2021/01/13 12:16:04;;;;;;;8.43;4.70;;;;;;;0.20;56.17;99253.63;1697267;82;21237;-61
2021/01/13 12:18:49;;;;;;;7.65;3.70;;;;;;;0.11;56.08;99244.63;1746992;81;21180;-60
2021/01/13 12:21:23;;;;;;;9.38;4.03;;;;;;;0.06;56.41;99234.53;1746385;81;21246;-61
2021/01/13 12:23:51;;;;;;;13.78;4.37;;;;;;;0.00;56.61;99234.89;1746050;80;21278;-66
2021/01/13 12:26:30;;;;;;;9.65;4.25;;;;;;;0.00;56.59;99231.01;1747562;81;21241;-63
2021/01/13 12:29:16;;;;;;;11.35;5.35;;;;;;;-0.02;56.61;99226.36;1724617;81;21175;-60
2021/01/13 12:31:47;;;;;;;8.78;4.03;;;;;;;-0.04;56.23;99227.73;1684878;83;21210;-58